Meteo Giornale » Osservazioni meteo Stati Uniti (USA) » Granby-Grand Co

ore: 12:55 - Osservazioni Meteo Granby-Grand Co
Lat. 40° 5' N Lon. 105° 55' W Alt. 2500 metri s.l.m.

sereno

19 °C

Sereno

Temp. 24 Ore

9 °C

21 °C

Sud-Ovest

13 Km/h

Dew point 7 °C

Umidità 45 %

Visibilità  10 Km

Il sole sorge alle ore 06:31

Il sole tramonta alle ore 19:35

Data e Ora Cielo e Fenomeni T °C DP °C Um. % Pres. hPa Vis. km Vento km/h
Oggi h: 12:55 sereno Sereno 19 7 45 1028 10 SO 13
Oggi h: 12:35 nuvoloso Nuvoloso 19 7 45 1028 10 SO 13
Oggi h: 12:15 molto_nuvoloso Molto Nuvoloso 18 8 51 1029 10 N 5.5
Oggi h: 11:55 molto_nuvoloso Molto Nuvoloso 18 8 51 1029 10 O 22.2
Oggi h: 11:35 molto_nuvoloso Molto Nuvoloso 17 9 59 1029 10 SO 11.1
Oggi h: 11:15 molto_nuvoloso Molto Nuvoloso 16 9 63 1029 10 N 0
Oggi h: 10:55 molto_nuvoloso Molto Nuvoloso 16 9 63 1029 10 E 7.4
Oggi h: 10:35 molto_nuvoloso Molto Nuvoloso 15 9 67 1029 10 N 0
Oggi h: 10:15 nuvoloso Nuvoloso 15 9 67 1029 10 N 5.5
Oggi h: 09:55 sereno Sereno 14 9 71 1029 10 N 5.5
Oggi h: 09:35 sereno Sereno 13 10 81 1029 10 N 0
Oggi h: 09:15 nuvoloso Nuvoloso 12 10 87 1030 10 N 0
Oggi h: 08:55 molto_nuvoloso Molto Nuvoloso 11 10 93 1030 10 N 0
Oggi h: 08:35 foschia Foschia 9 9 100 1030 2 N 0
Oggi h: 08:15 nebbia Nebbia 9 9 100 1030 0 N 0
Oggi h: 07:55 nuvoloso Nuvoloso 9 9 100 1030 10 N 0
Oggi h: 07:35 nuvoloso Nuvoloso 9 9 100 1029 10 O/SO 7.4
Oggi h: 07:15 coperto Coperto 9 9 100 1029 10 SE 7.4
Oggi h: 06:55 coperto Coperto 9 8 93 1029 10 N 0
Oggi h: 06:35 coperto Coperto 9 8 93 1029 10 N 0
Oggi h: 06:15 molto_nuvoloso Molto Nuvoloso 9 8 93 1029 10 N 0
Oggi h: 05:55 nuvoloso Nuvoloso 9 8 93 1028 10 N 0
Oggi h: 05:35 sereno Sereno 9 9 100 1028 10 N 0
Oggi h: 05:15 nuvoloso Nuvoloso 9 9 100 1028 10 N 0
Oggi h: 04:55 molto_nuvoloso Molto Nuvoloso 9 9 100 1028 10 N 0
Oggi h: 04:35 nuvoloso Nuvoloso 10 9 93 1028 10 N 0
Oggi h: 04:15 sereno Sereno 10 9 93 1028 10 N 0
Oggi h: 03:55 sereno Sereno 10 9 93 1028 10 E/NE 7.4
Oggi h: 03:35 sereno Sereno 10 10 100 1028 10 E 9.3
Oggi h: 03:15 sereno Sereno 10 10 100 1028 10 N 0
Oggi h: 02:55 nuvoloso Nuvoloso 11 10 93 1028 10 N 0
Oggi h: 02:35 coperto Coperto 11 10 93 1029 10 N 0
Oggi h: 02:15 coperto Coperto 11 10 93 1029 10 N 0
Oggi h: 01:55 coperto Coperto 11 10 93 1029 10 N 0
Oggi h: 01:35 coperto Coperto 11 10 93 1029 10 N 0
Oggi h: 01:15 coperto Coperto 11 10 93 1029 10 N 0
Oggi h: 00:55 coperto Coperto 11 10 93 1029 10 N 5.5
Oggi h: 00:35 coperto Coperto 11 10 93 1029 10 N 5.5
Oggi h: 00:15 coperto Coperto 11 10 93 1029 10 N 0
Ieri h: 23:55 coperto Coperto 11 10 93 1029 10 N 5.5
Ieri h: 23:35 coperto_pioggia Pioviggine 11 10 93 1029 10 N 5.5
Ieri h: 23:15 coperto_pioggia Pioggia 11 10 93 1029 10 N 0
Ieri h: 22:55 coperto Coperto 11 10 93 1029 10 N 5.5
Ieri h: 22:35 coperto Coperto 11 10 93 1029 10 S/SE 7.4
Ieri h: 22:15 nuvoloso Nuvoloso 11 10 93 1028 10 N 0
Ieri h: 21:55 nuvoloso Nuvoloso 11 10 93 1028 10 N 0
Ieri h: 21:35 coperto Coperto 12 10 87 1029 10 N 11.1
Ieri h: 21:15 coperto_pioggia Pioggia 12 10 87 1029 10 NE 11.1
Ieri h: 20:55 coperto_pioggia Pioggia 12 11 93 1030 10 NE 13
Ieri h: 20:35 coperto_pioggia Pioggia 12 11 93 1031 8 E 7.4
Ieri h: 20:15 coperto_pioggia Pioviggine 12 11 93 1030 10 S 9.3
Ieri h: 19:55 coperto_pioggia Pioggia 12 11 93 1030 10 N 0
Ieri h: 19:35 coperto_pioggia Pioggia 12 11 93 1030 10 N 0
Ieri h: 19:15 coperto Coperto 12 11 93 1030 10 N 9.3
Ieri h: 18:55 molto_nuvoloso Molto Nuvoloso 13 11 87 1030 10 N/NE 9.3
Ieri h: 18:35 coperto_pioggia Pioviggine 13 12 93 1030 10 N 13
Ieri h: 18:15 coperto_pioggia Pioggia 13 11 87 1030 10 N 0
Ieri h: 17:55 coperto_pioggia Pioggia 13 11 87 1031 10 N 5.5
Ieri h: 17:35 coperto_pioggia Pioggia 13 11 87 1030 10 S 13
Ieri h: 17:15 coperto_pioggia Pioggia 13 11 87 1030 10 S 11.1
Ieri h: 16:55 coperto_pioggia Pioggia 13 11 87 1030 11 S 16.7
Ieri h: 16:35 coperto_pioggia Pioviggine 14 10 76 1029 10 SE 25.9
Ieri h: 16:15 coperto Coperto 17 7 51 1029 10 E/SE 38.8
Ieri h: 15:55 coperto_temporali Temporale 18 7 48 1028 10 E/SE 25.9
Ieri h: 15:35 molto_nuvoloso Molto Nuvoloso 21 5 35 1028 10 SE 18.5
Ieri h: 15:15 nuvoloso Nuvoloso 21 5 35 1028 10 N 5.5
Ieri h: 14:55 sereno Sereno 21 5 35 1029 10 N 0
Ieri h: 14:35 sereno Sereno 21 7 40 1029 10 NO 13
Ieri h: 14:15 sereno Sereno 20 6 39 1029 10 NO 7.4
Ieri h: 13:55 sereno Sereno 20 7 42 1029 10 O/NO 9.3
Ieri h: 13:35 sereno Sereno 20 7 42 1030 10 O/NO 9.3